Time;durP1;ratioP1;P1;durP2;ratioP2;P2;SDS_P1;SDS_P2;PMS_P1;PMS_P2;Temp;Humidity;BMP_temperature;BMP_pressure;BME280_temperature;BME280_humidity;BME280_pressure;Samples;Min_cycle;Max_cycle;Signal;HPM_P1;HPM_P2
2022/06/02 00:01:00;;;;;;;7.62;3.47;;;;;;;18.90;57.35;100389.28;5369595;32;45150;-67
2022/06/02 00:04:40;;;;;;;7.45;3.20;;;;;;;19.82;53.86;100382.34;5362640;32;34008;-70
2022/06/02 00:07:48;;;;;;;5.43;3.53;;;;;;;19.67;53.73;100384.38;5292293;33;34023;-67
2022/06/02 00:11:02;;;;;;;8.70;3.50;;;;;;;19.17;56.13;100370.38;5304009;33;44469;-70
2022/06/02 00:14:16;;;;;;;5.18;2.87;;;;;;;18.96;55.93;100378.16;5383210;32;35900;-65
2022/06/02 00:17:30;;;;;;;8.05;3.58;;;;;;;19.90;53.14;100378.12;5390052;32;34116;-64
2022/06/02 00:20:43;;;;;;;5.93;2.90;;;;;;;19.95;52.53;100372.41;5368618;32;34332;-67
2022/06/02 00:23:53;;;;;;;6.85;3.22;;;;;;;18.74;57.52;100378.03;5363354;32;36935;-70
2022/06/02 00:27:12;;;;;;;7.68;3.12;;;;;;;19.11;55.74;100370.84;5383497;32;45960;-65
2022/06/02 00:30:14;;;;;;;8.05;3.40;;;;;;;18.32;58.42;100366.84;5369245;32;34177;-65
2022/06/02 00:33:32;;;;;;;6.95;3.65;;;;;;;18.54;57.39;100366.16;5386165;32;34226;-70
2022/06/02 00:37:00;;;;;;;6.05;3.08;;;;;;;18.37;58.24;100376.22;5371693;32;36088;-65
2022/06/02 00:40:04;;;;;;;6.32;3.15;;;;;;;19.16;54.86;100374.88;5361786;32;34151;-65
2022/06/02 00:43:21;;;;;;;8.77;3.45;;;;;;;18.55;57.23;100370.53;5399611;32;35607;-65
2022/06/02 00:46:30;;;;;;;5.53;3.58;;;;;;;18.57;57.64;100366.78;5384439;32;46906;-73
2022/06/02 00:50:09;;;;;;;4.47;2.70;;;;;;;19.69;53.54;100358.44;5386306;32;35475;-65
2022/06/02 00:53:17;;;;;;;6.00;3.17;;;;;;;19.67;53.06;100347.06;5381838;32;34064;-70
2022/06/02 01:00:12;;;;;;;6.07;3.23;;;;;;;20.09;52.50;100361.50;5388584;32;44645;-69
2022/06/02 01:03:20;;;;;;;8.60;3.90;;;;;;;18.28;57.26;100355.56;5373116;32;36761;-65
2022/06/02 01:06:29;;;;;;;7.07;3.28;;;;;;;18.01;59.85;100370.81;5383637;32;47338;-69
2022/06/02 01:10:03;;;;;;;6.20;3.17;;;;;;;18.26;58.46;100365.47;5386320;32;32156;-67
2022/06/02 01:13:11;;;;;;;6.87;3.42;;;;;;;17.91;59.32;100380.44;5368066;32;35172;-70
2022/06/02 01:16:18;;;;;;;6.55;3.30;;;;;;;18.29;57.08;100370.59;5395892;32;36787;-64
2022/06/02 01:20:00;;;;;;;6.93;3.20;;;;;;;18.48;57.19;100362.09;5364808;32;46823;-65
2022/06/02 01:23:37;;;;;;;4.30;2.77;;;;;;;17.96;57.78;100355.19;5355150;32;34526;-72
2022/06/02 01:26:53;;;;;;;6.70;2.63;;;;;;;18.21;55.61;100356.97;5400595;32;34501;-71
2022/06/02 01:30:07;;;;;;;4.45;2.85;;;;;;;18.41;54.97;100344.88;5387704;32;44488;-64
2022/06/02 01:33:18;;;;;;;7.97;2.83;;;;;;;18.57;53.99;100353.47;5382339;32;34089;-65
2022/06/02 01:36:27;;;;;;;5.87;2.97;;;;;;;18.26;55.00;100349.50;5400559;32;45955;-69
2022/06/02 01:40:11;;;;;;;4.57;3.00;;;;;;;18.06;56.21;100337.62;5363516;32;33827;-70
2022/06/02 01:43:40;;;;;;;6.28;3.55;;;;;;;18.03;56.23;100335.22;5360168;32;35348;-70
2022/06/02 01:46:50;;;;;;;8.75;3.22;;;;;;;18.44;56.09;100322.56;5386522;32;34174;-65
2022/06/02 01:50:01;;;;;;;6.35;3.15;;;;;;;18.50;55.93;100325.63;5368564;32;44530;-65
2022/06/02 01:53:39;;;;;;;5.03;2.73;;;;;;;18.90;54.77;100336.00;5397924;32;35161;-69
2022/06/02 01:56:52;;;;;;;5.85;3.00;;;;;;;17.67;58.49;100349.22;5395587;32;34856;-66
2022/06/02 02:00:03;;;;;;;5.37;2.80;;;;;;;18.98;54.21;100344.28;5382777;32;44375;-71
2022/06/02 02:03:34;;;;;;;5.87;3.27;;;;;;;19.04;53.75;100342.97;5392164;32;34038;-65
2022/06/02 02:06:52;;;;;;;10.17;3.37;;;;;;;17.81;58.53;100346.50;5358757;32;35123;-65
2022/06/02 02:10:26;;;;;;;6.57;3.25;;;;;;;18.01;58.56;100344.25;5383941;32;44680;-65
2022/06/02 02:13:37;;;;;;;6.67;3.00;;;;;;;17.96;59.33;100338.37;5398092;32;44387;-65
2022/06/02 02:17:05;;;;;;;6.73;3.00;;;;;;;18.45;57.45;100343.72;5361248;32;35613;-65
2022/06/02 02:20:46;;;;;;;5.97;2.90;;;;;;;18.06;58.79;100339.44;5382820;32;34400;-65
2022/06/02 02:24:06;;;;;;;5.17;2.60;;;;;;;18.07;58.95;100335.81;5300482;33;34299;-71
2022/06/02 02:28:02;;;;;;;6.50;3.00;;;;;;;17.91;59.27;100343.22;5288917;32;35094;-66
2022/06/02 02:31:25;;;;;;;7.35;2.97;;;;;;;18.56;56.34;100329.66;5357729;32;35819;-70
2022/06/02 02:34:43;;;;;;;6.63;2.50;;;;;;;18.70;55.84;100339.31;5382635;32;46643;-64
2022/06/02 02:38:01;;;;;;;4.57;2.55;;;;;;;19.10;53.63;100348.69;5345910;32;35983;-64
2022/06/02 02:41:06;;;;;;;5.10;2.50;;;;;;;19.33;53.41;100351.44;5362778;32;37582;-70
2022/06/02 02:44:53;;;;;;;4.80;2.75;;;;;;;18.82;54.43;100370.34;5388803;32;35912;-70
2022/06/02 02:48:12;;;;;;;5.37;2.97;;;;;;;19.74;51.51;100382.94;5289184;33;34202;-64
2022/06/02 02:51:16;;;;;;;4.30;2.47;;;;;;;18.97;53.44;100385.19;5311012;32;36125;-66
2022/06/02 02:54:21;;;;;;;5.82;2.87;;;;;;;18.07;55.99;100384.53;5371126;32;34638;-66
2022/06/02 02:57:55;;;;;;;4.97;2.80;;;;;;;18.54;54.21;100382.13;5387130;32;44764;-67
2022/06/02 03:01:05;;;;;;;6.43;2.72;;;;;;;19.56;51.12;100414.47;5384200;32;44318;-68
2022/06/02 03:04:33;;;;;;;5.32;2.28;;;;;;;18.17;54.40;100427.31;5348417;32;33978;-70
2022/06/02 03:07:35;;;;;;;8.85;2.92;;;;;;;18.07;54.62;100420.94;5352171;32;34000;-65
2022/06/02 03:10:39;;;;;;;7.00;2.62;;;;;;;19.06;51.53;100439.59;5374832;32;33547;-70
2022/06/02 03:14:29;;;;;;;7.35;2.72;;;;;;;19.44;51.34;100445.56;5382670;32;36121;-65
2022/06/02 03:18:00;;;;;;;4.70;2.60;;;;;;;18.17;54.96;100453.06;5339331;32;34818;-65
2022/06/02 03:21:11;;;;;;;5.03;2.80;;;;;;;18.37;57.19;100450.72;5366234;32;34850;-69
2022/06/02 03:24:22;;;;;;;6.72;2.97;;;;;;;18.68;55.70;100464.53;5381596;32;34156;-69
2022/06/02 03:27:27;;;;;;;4.72;2.90;;;;;;;18.31;58.93;100472.44;5400914;32;45278;-72
2022/06/02 03:30:36;;;;;;;11.82;3.58;;;;;;;18.97;56.71;100466.91;5383051;32;34373;-66
2022/06/02 03:33:42;;;;;;;5.68;2.90;;;;;;;19.85;54.77;100467.47;5380804;32;35229;-65
2022/06/02 03:36:59;;;;;;;4.43;2.62;;;;;;;19.71;54.75;100479.19;5376662;32;35585;-65
2022/06/02 03:40:24;;;;;;;5.47;2.90;;;;;;;19.10;55.27;100473.03;5348158;32;34179;-65
2022/06/02 03:43:39;;;;;;;5.57;3.20;;;;;;;18.88;59.85;100471.94;5389986;32;44347;-68
2022/06/02 03:47:06;;;;;;;6.70;3.25;;;;;;;18.87;60.51;100483.56;5369762;32;34258;-64
2022/06/02 03:50:11;;;;;;;7.32;2.90;;;;;;;18.46;59.75;100472.31;5393922;32;34377;-67
2022/06/02 03:53:44;;;;;;;6.53;3.55;;;;;;;18.59;60.92;100478.47;5393593;32;34655;-65
2022/06/02 03:57:08;;;;;;;10.27;4.37;;;;;;;19.23;59.34;100465.84;5385772;32;34119;-71
2022/06/02 04:00:16;;;;;;;9.43;3.78;;;;;;;19.01;60.94;100457.75;5401811;32;34723;-65
2022/06/02 04:03:42;;;;;;;8.27;4.12;;;;;;;18.33;67.40;100451.88;5370790;32;34402;-66
2022/06/02 04:07:03;;;;;;;9.63;3.97;;;;;;;18.58;65.44;100434.16;5364611;32;35387;-70
2022/06/02 04:10:08;;;;;;;5.85;3.67;;;;;;;18.13;67.62;100434.66;5394653;32;34231;-72
2022/06/02 04:13:37;;;;;;;11.02;4.05;;;;;;;18.09;67.91;100435.81;5383238;32;35260;-65
2022/06/02 04:16:58;;;;;;;9.18;4.85;;;;;;;18.30;69.39;100427.31;5373299;32;34026;-71
2022/06/02 04:20:35;;;;;;;11.27;4.50;;;;;;;18.96;65.33;100438.56;5380828;32;34261;-70
2022/06/02 04:24:15;;;;;;;8.18;4.22;;;;;;;19.02;66.53;100444.31;5363894;32;34174;-65
2022/06/02 04:27:23;;;;;;;8.98;4.40;;;;;;;19.90;62.30;100463.47;5388405;32;35911;-65
2022/06/02 04:30:53;;;;;;;7.32;4.10;;;;;;;19.08;64.80;100465.16;5396495;32;46567;-65
2022/06/02 04:34:20;;;;;;;11.60;5.37;;;;;;;18.22;68.93;100462.41;5381885;32;46654;-69
2022/06/02 04:37:45;;;;;;;8.80;4.50;;;;;;;19.38;66.11;100466.50;5385709;32;44586;-66
2022/06/02 04:41:11;;;;;;;11.23;5.65;;;;;;;19.12;63.73;100468.44;5344568;32;35322;-66
2022/06/02 04:44:13;;;;;;;7.70;4.78;;;;;;;18.62;66.16;100460.47;5358344;32;34278;-65
2022/06/02 04:47:42;;;;;;;11.03;5.40;;;;;;;18.49;68.13;100461.47;5400202;32;35777;-65
2022/06/02 04:51:10;;;;;;;8.65;5.03;;;;;;;19.02;65.07;100452.28;5355548;32;34250;-70
2022/06/02 04:54:24;;;;;;;9.02;4.70;;;;;;;18.54;66.14;100469.94;5363125;32;34197;-65
2022/06/02 04:57:35;;;;;;;7.30;4.55;;;;;;;19.14;62.97;100466.53;5381305;32;44449;-70
2022/06/02 05:00:48;;;;;;;9.80;5.03;;;;;;;19.23;61.75;100470.31;5354688;32;35439;-65
2022/06/02 05:04:36;;;;;;;8.43;4.72;;;;;;;19.07;63.02;100473.28;5387742;32;44700;-70
2022/06/02 05:08:21;;;;;;;12.18;6.85;;;;;;;18.96;62.75;100474.03;5338465;32;35316;-66
2022/06/02 05:11:37;;;;;;;15.07;8.50;;;;;;;19.48;63.07;100476.38;5335046;32;34038;-66
2022/06/02 05:14:53;;;;;;;10.77;5.50;;;;;;;19.81;60.79;100476.66;5384736;32;34390;-70
2022/06/02 05:18:32;;;;;;;8.70;5.57;;;;;;;18.92;64.38;100478.72;5370736;32;44428;-70
2022/06/02 05:21:48;;;;;;;9.82;5.95;;;;;;;19.67;60.63;100470.56;5366343;32;34178;-71
2022/06/02 05:25:11;;;;;;;9.63;5.12;;;;;;;20.02;60.70;100486.50;5378957;32;45323;-70
2022/06/02 05:28:36;;;;;;;;;;;;;;;20.18;59.46;100482.69;5364719;32;35429;-71
2022/06/02 05:32:03;;;;;;;9.32;4.85;;;;;;;20.16;59.44;100484.63;5364600;32;34058;-67
2022/06/02 05:35:05;;;;;;;6.70;4.65;;;;;;;20.39;58.61;100493.50;5398092;32;34156;-66
2022/06/02 05:38:10;;;;;;;19.23;9.10;;;;;;;20.27;58.70;100495.28;5354675;32;34375;-72
2022/06/02 05:41:39;;;;;;;8.55;5.32;;;;;;;20.30;58.62;100497.75;5375993;32;36218;-66
2022/06/02 05:45:02;;;;;;;7.22;4.32;;;;;;;20.08;59.77;100509.22;5397145;32;35471;-70
2022/06/02 05:48:23;;;;;;;7.65;4.53;;;;;;;19.30;59.21;100503.53;5374846;32;35251;-73
2022/06/02 05:51:54;;;;;;;8.35;4.43;;;;;;;19.37;60.79;100499.47;5378975;32;46553;-71
2022/06/02 05:55:19;;;;;;;9.37;4.57;;;;;;;19.60;59.77;100493.31;5349096;32;44573;-66
2022/06/02 05:58:39;;;;;;;10.97;5.10;;;;;;;18.86;62.42;100505.81;5376521;32;44384;-67
2022/06/02 06:02:00;;;;;;;9.13;4.40;;;;;;;19.42;60.15;100499.97;5387968;32;34221;-67
2022/06/02 06:05:16;;;;;;;9.57;4.73;;;;;;;19.53;59.64;100493.84;5380564;32;33423;-67
2022/06/02 06:08:30;;;;;;;9.32;4.57;;;;;;;18.45;63.07;100505.19;5377442;32;34129;-65
2022/06/02 06:11:59;;;;;;;9.43;4.30;;;;;;;19.87;59.16;100510.84;5397386;32;34128;-67
2022/06/02 06:15:32;;;;;;;22.10;6.82;;;;;;;20.67;56.84;100519.75;5376386;32;35212;-64
2022/06/02 06:18:43;;;;;;;12.02;4.50;;;;;;;20.72;56.83;100514.87;5381322;32;34519;-64
2022/06/02 06:21:58;;;;;;;11.13;4.50;;;;;;;19.23;60.21;100519.13;5387395;32;34978;-65
2022/06/02 06:25:18;;;;;;;11.15;4.57;;;;;;;21.32;54.24;100512.78;5366637;32;34239;-66
2022/06/02 06:28:23;;;;;;;13.95;5.05;;;;;;;21.53;53.11;100520.88;5376725;32;46573;-64
2022/06/02 06:31:47;;;;;;;10.82;4.03;;;;;;;22.09;51.05;100521.50;5384224;32;34058;-66
2022/06/02 06:34:52;;;;;;;8.63;3.72;;;;;;;21.77;51.00;100523.34;5367629;32;42306;-66
2022/06/02 06:38:17;;;;;;;8.75;3.58;;;;;;;21.77;51.84;100526.00;5377759;32;34269;-72
2022/06/02 06:41:41;;;;;;;11.45;4.12;;;;;;;23.42;48.06;100527.69;5372181;32;36175;-67
2022/06/02 06:45:06;;;;;;;8.10;3.90;;;;;;;23.90;45.84;100532.28;5397759;32;34501;-67
2022/06/02 06:48:22;;;;;;;10.25;3.85;;;;;;;22.45;47.95;100540.72;5388612;32;36703;-67
2022/06/02 06:52:02;;;;;;;7.43;3.47;;;;;;;23.74;44.41;100539.03;5379683;32;44516;-65
2022/06/02 06:55:11;;;;;;;9.00;4.12;;;;;;;23.52;45.35;100532.09;5391220;32;34048;-77
2022/06/02 06:58:40;;;;;;;6.43;3.60;;;;;;;23.91;44.57;100536.66;5384636;32;33006;-68
2022/06/02 07:02:05;;;;;;;7.68;3.90;;;;;;;22.98;47.08;100545.91;5366268;32;35322;-65
2022/06/02 07:05:16;;;;;;;8.75;4.30;;;;;;;24.56;43.37;100540.38;5396322;32;35598;-70
2022/06/02 07:08:35;;;;;;;11.60;4.12;;;;;;;24.07;45.18;100542.25;5362788;32;35341;-71
2022/06/02 07:16:00;;;;;;;9.10;3.70;;;;;;;25.61;40.69;100554.28;5379607;32;37353;-67
2022/06/02 07:19:07;;;;;;;;;;;;;;;25.80;40.18;100553.31;5358870;32;33887;-68
2022/06/02 07:22:30;;;;;;;8.65;3.30;;;;;;;25.80;39.64;100541.69;5365711;32;36426;-69
2022/06/02 07:26:12;;;;;;;7.82;3.62;;;;;;;24.50;42.13;100554.38;5383041;32;34071;-69
2022/06/02 07:29:42;;;;;;;7.62;3.35;;;;;;;24.43;42.44;100548.75;5380041;32;36709;-67
2022/06/02 07:33:02;;;;;;;11.20;4.78;;;;;;;24.64;41.31;100551.22;5372409;32;35141;-66
2022/06/02 07:36:32;;;;;;;9.02;3.42;;;;;;;25.05;40.23;100543.72;5394778;32;34129;-67
2022/06/02 07:39:37;;;;;;;14.43;5.90;;;;;;;24.93;40.50;100543.06;5357332;32;34374;-69
2022/06/02 07:42:51;;;;;;;9.77;3.67;;;;;;;25.33;40.32;100523.03;5390892;32;33970;-67
2022/06/02 07:45:59;;;;;;;8.18;3.37;;;;;;;27.16;36.61;100535.69;5376720;32;44686;-66
2022/06/02 07:49:25;;;;;;;9.85;3.35;;;;;;;28.15;34.88;100537.56;5376094;32;35599;-71
2022/06/02 07:52:50;;;;;;;6.28;3.05;;;;;;;28.48;33.89;100533.81;5376852;32;44454;-69
2022/06/02 07:56:15;;;;;;;17.33;5.30;;;;;;;28.58;32.88;100534.44;5382471;32;44502;-69
2022/06/02 07:59:39;;;;;;;8.43;3.53;;;;;;;27.14;36.08;100543.13;5383358;32;34166;-65
2022/06/02 08:03:02;;;;;;;6.18;3.55;;;;;;;26.40;36.52;100547.25;5393870;32;34318;-66
2022/06/02 08:06:42;;;;;;;6.45;3.47;;;;;;;25.84;37.87;100543.09;5377436;32;34299;-66
2022/06/02 08:10:01;;;;;;;8.45;3.92;;;;;;;26.85;36.13;100548.84;5356507;32;35643;-67
2022/06/02 08:13:25;;;;;;;10.23;4.55;;;;;;;26.77;36.11;100546.97;5372299;32;33894;-71
2022/06/02 08:16:45;;;;;;;7.47;4.50;;;;;;;25.58;38.89;100559.13;5376790;32;44457;-69
2022/06/02 08:19:52;;;;;;;7.72;4.05;;;;;;;26.99;36.09;100551.78;5376692;32;34997;-66
2022/06/02 08:23:24;;;;;;;6.47;3.50;;;;;;;24.21;42.17;100552.56;5374269;32;44564;-66
2022/06/02 08:26:26;;;;;;;;;;;;;;;26.36;38.14;100560.16;5373581;32;46522;-69
2022/06/02 08:29:38;;;;;;;10.23;4.18;;;;;;;26.94;36.62;100554.12;5391795;32;35282;-68
2022/06/02 08:33:08;;;;;;;9.18;4.12;;;;;;;26.84;36.58;100548.00;5361536;32;34044;-69
2022/06/02 08:36:14;;;;;;;10.30;4.45;;;;;;;28.09;34.25;100549.03;5390638;32;34128;-69
2022/06/02 08:39:36;;;;;;;7.00;3.60;;;;;;;27.67;35.21;100555.37;5371003;32;35528;-70
2022/06/02 08:42:53;;;;;;;5.87;3.87;;;;;;;28.75;33.40;100556.03;5379254;32;34227;-69
2022/06/02 08:46:08;;;;;;;11.43;4.20;;;;;;;29.23;33.02;100551.47;5378362;32;46033;-69
2022/06/02 08:49:41;;;;;;;6.43;3.85;;;;;;;29.81;31.57;100547.41;5377403;32;34268;-72
2022/06/02 08:53:17;;;;;;;10.02;3.67;;;;;;;30.37;30.55;100546.09;5373799;32;34146;-71
2022/06/02 08:56:50;;;;;;;8.32;4.30;;;;;;;30.78;30.36;100544.84;5393382;32;35411;-70
2022/06/02 09:00:01;;;;;;;6.87;4.18;;;;;;;30.85;30.36;100552.06;5375089;32;35210;-67
2022/06/02 09:03:09;;;;;;;6.45;3.55;;;;;;;30.48;30.87;100555.66;5379082;32;34000;-70
2022/06/02 09:06:46;;;;;;;9.45;3.35;;;;;;;32.67;27.45;100550.81;5391137;32;37700;-71
2022/06/02 09:10:17;;;;;;;8.05;3.75;;;;;;;31.27;30.12;100548.66;5362638;32;36126;-66
2022/06/02 09:14:01;;;;;;;6.15;3.20;;;;;;;32.77;27.74;100543.09;5381526;32;34288;-67
2022/06/02 09:17:25;;;;;;;5.75;3.05;;;;;;;32.85;27.49;100547.56;5374822;32;34850;-68
2022/06/02 09:20:41;;;;;;;5.62;2.78;;;;;;;34.79;24.63;100548.53;5374958;32;46604;-66
2022/06/02 09:24:01;;;;;;;6.00;2.55;;;;;;;33.86;26.08;100554.00;5381327;32;36075;-72
2022/06/02 09:27:31;;;;;;;7.70;4.72;;;;;;;32.06;28.79;100561.41;5357616;32;37039;-69
2022/06/02 09:30:55;;;;;;;4.60;2.40;;;;;;;30.00;32.01;100557.75;5376911;32;34209;-68
2022/06/02 09:34:07;;;;;;;3.80;2.50;;;;;;;35.17;24.27;100551.38;5365928;32;44584;-69
2022/06/02 09:37:34;;;;;;;4.50;2.30;;;;;;;34.97;24.51;100553.31;5362389;32;34723;-71
2022/06/02 09:41:02;;;;;;;4.62;2.75;;;;;;;31.51;29.36;100561.06;5351515;32;34917;-70
2022/06/02 09:44:24;;;;;;;4.40;2.30;;;;;;;31.67;29.15;100546.38;5388230;32;33666;-67
2022/06/02 09:48:04;;;;;;;5.90;2.67;;;;;;;32.45;28.62;100554.63;5370975;32;44563;-69
2022/06/02 09:51:42;;;;;;;5.85;3.10;;;;;;;34.27;26.10;100558.47;5375250;32;35730;-68
2022/06/02 09:55:10;;;;;;;4.28;2.35;;;;;;;33.53;26.91;100556.66;5320007;32;34083;-69
2022/06/02 09:58:41;;;;;;;5.75;2.72;;;;;;;31.71;29.77;100549.56;5364373;32;34369;-69
2022/06/02 10:01:44;;;;;;;5.75;2.53;;;;;;;32.38;29.09;100553.72;5362823;32;34190;-70
2022/06/02 10:05:02;;;;;;;3.83;2.22;;;;;;;32.68;28.44;100544.31;5387943;32;44390;-71
2022/06/02 10:08:12;;;;;;;4.75;2.37;;;;;;;31.31;30.28;100553.72;5363324;32;35145;-69
2022/06/02 10:11:29;;;;;;;4.87;2.42;;;;;;;30.67;31.18;100544.28;5378841;32;34185;-67
2022/06/02 10:15:00;;;;;;;4.78;2.47;;;;;;;32.94;28.25;100542.81;5366733;32;34172;-71
2022/06/02 10:18:26;;;;;;;3.58;2.40;;;;;;;34.94;24.95;100534.66;5378796;32;33937;-70
2022/06/02 10:21:48;;;;;;;6.78;2.60;;;;;;;35.66;24.04;100538.91;5390268;32;45990;-72
2022/06/02 10:25:38;;;;;;;4.37;2.00;;;;;;;32.03;28.32;100540.91;5363132;32;34513;-69
2022/06/02 10:28:58;;;;;;;4.35;2.45;;;;;;;34.26;26.15;100525.91;5371445;32;34700;-73
2022/06/02 10:32:19;;;;;;;3.78;2.30;;;;;;;35.77;23.97;100540.94;5387870;32;34030;-71
2022/06/02 10:35:52;;;;;;;6.97;2.62;;;;;;;32.85;27.40;100523.06;5376592;32;45255;-68
2022/06/02 10:38:57;;;;;;;4.15;2.15;;;;;;;34.28;25.89;100521.94;5361116;32;45181;-67
2022/06/02 10:42:08;;;;;;;4.05;2.10;;;;;;;35.82;24.25;100529.34;5385775;32;34184;-66
2022/06/02 10:45:41;;;;;;;3.42;1.98;;;;;;;35.19;25.17;100532.84;5370277;32;33942;-64
2022/06/02 10:48:46;;;;;;;4.87;2.10;;;;;;;33.35;27.07;100523.69;5373993;32;36343;-65
2022/06/02 10:52:13;;;;;;;5.97;2.83;;;;;;;33.49;27.61;100525.44;5385229;32;35541;-67
2022/06/02 10:55:28;;;;;;;5.53;2.30;;;;;;;32.90;28.89;100536.09;5377185;32;33130;-66
2022/06/02 10:59:08;;;;;;;6.10;2.55;;;;;;;33.75;27.13;100526.50;5391800;32;35581;-66
2022/06/02 11:02:38;;;;;;;8.15;2.85;;;;;;;34.70;26.18;100537.00;5379874;32;34628;-70
2022/06/02 11:06:09;;;;;;;3.90;2.37;;;;;;;34.43;26.85;100533.47;5378678;32;34004;-70
2022/06/02 11:09:49;;;;;;;5.78;2.17;;;;;;;33.70;27.33;100529.88;5392270;32;34752;-69
2022/06/02 11:12:51;;;;;;;4.85;2.30;;;;;;;31.55;30.50;100547.91;5377729;32;35398;-70
2022/06/02 11:15:56;;;;;;;4.57;2.60;;;;;;;31.91;30.09;100541.63;5381605;32;34120;-68
2022/06/02 11:19:36;;;;;;;9.98;3.25;;;;;;;30.30;32.87;100536.19;5375978;32;37028;-66
2022/06/02 11:22:57;;;;;;;5.12;2.72;;;;;;;30.50;32.11;100531.06;5364020;32;34291;-67
2022/06/02 11:26:31;;;;;;;6.30;2.40;;;;;;;30.29;32.28;100538.06;5381186;32;34601;-69
2022/06/02 11:30:00;;;;;;;3.22;2.37;;;;;;;30.82;31.29;100540.72;5394565;32;36284;-73
2022/06/02 11:33:13;;;;;;;5.03;2.65;;;;;;;32.71;28.01;100530.28;5358634;32;35368;-74
2022/06/02 11:36:37;;;;;;;6.93;2.37;;;;;;;34.67;25.40;100529.25;5392780;32;35872;-77
2022/06/02 11:40:17;;;;;;;3.70;2.17;;;;;;;33.14;27.80;100538.28;5369702;32;34339;-73
2022/06/02 11:43:24;;;;;;;2.70;1.95;;;;;;;31.67;29.35;100540.94;5362271;32;35485;-67
2022/06/02 11:46:44;;;;;;;4.47;2.10;;;;;;;32.60;28.23;100549.94;5377803;32;45012;-69
2022/06/02 11:50:24;;;;;;;4.47;2.15;;;;;;;34.07;26.80;100533.06;5366099;32;34073;-68
2022/06/02 11:53:53;;;;;;;6.60;2.90;;;;;;;34.18;26.03;100536.00;5348110;32;34027;-69
2022/06/02 11:57:18;;;;;;;4.87;3.12;;;;;;;33.84;26.61;100538.91;5381213;32;46669;-74
2022/06/02 12:00:26;;;;;;;2.97;2.20;;;;;;;33.74;26.59;100546.63;5377282;32;46876;-70
2022/06/02 12:03:50;;;;;;;4.60;2.10;;;;;;;33.36;26.08;100547.16;5380123;32;35371;-72
2022/06/02 12:07:36;;;;;;;6.35;2.25;;;;;;;33.00;27.30;100536.56;5390400;32;44659;-66
2022/06/02 12:11:08;;;;;;;4.82;1.95;;;;;;;31.13;29.72;100540.50;5380045;32;34277;-75
2022/06/02 12:14:31;;;;;;;4.28;2.15;;;;;;;29.70;31.95;100547.84;5360739;32;35376;-74
2022/06/02 12:18:00;;;;;;;3.87;2.03;;;;;;;29.48;32.27;100539.47;5395496;32;34912;-71
2022/06/02 12:21:09;;;;;;;3.80;1.80;;;;;;;29.78;31.65;100547.78;5377112;32;34355;-68
2022/06/02 12:24:56;;;;;;;3.78;2.10;;;;;;;29.62;31.57;100546.03;5386706;32;34303;-67
2022/06/02 12:28:13;;;;;;;5.53;2.20;;;;;;;29.07;32.23;100549.69;5388199;32;32579;-63
2022/06/02 12:31:28;;;;;;;2.97;2.03;;;;;;;29.28;32.41;100552.63;5378187;32;35042;-65
2022/06/02 12:35:13;;;;;;;4.25;2.00;;;;;;;29.68;30.55;100548.84;5380121;32;34202;-67
2022/06/02 12:38:47;;;;;;;6.03;1.90;;;;;;;29.06;31.87;100553.44;5357938;32;35386;-74
2022/06/02 12:41:55;;;;;;;3.72;1.70;;;;;;;27.61;34.79;100532.59;5372871;32;35399;-72
2022/06/02 12:45:11;;;;;;;2.53;1.60;;;;;;;28.26;32.64;100540.72;5387935;32;45958;-71
2022/06/02 12:48:32;;;;;;;2.42;1.50;;;;;;;28.29;32.58;100553.06;5379080;32;34198;-75
2022/06/02 12:51:45;;;;;;;5.78;1.40;;;;;;;29.26;30.78;100561.97;5378190;32;33987;-79
2022/06/02 12:55:09;;;;;;;4.37;1.40;;;;;;;29.27;30.63;100560.94;5380111;32;34129;-70
2022/06/02 12:58:34;;;;;;;3.97;1.70;;;;;;;28.77;31.69;100557.53;5363208;32;35953;-65
2022/06/02 13:01:55;;;;;;;2.65;1.50;;;;;;;29.17;30.90;100568.41;5378535;32;34121;-68
2022/06/02 13:05:12;;;;;;;2.87;1.65;;;;;;;29.34;30.66;100561.91;5386031;32;46481;-68
2022/06/02 13:08:38;;;;;;;3.90;1.35;;;;;;;28.29;31.71;100563.88;5382829;32;35655;-68
2022/06/02 13:11:58;;;;;;;2.35;1.60;;;;;;;28.12;31.45;100571.12;5389847;32;34297;-71
2022/06/02 13:15:15;;;;;;;2.20;1.67;;;;;;;28.46;30.87;100572.81;5386692;32;34210;-71
2022/06/02 13:18:33;;;;;;;1.52;1.10;;;;;;;29.20;28.92;100559.97;5362570;32;34896;-69
2022/06/02 13:22:02;;;;;;;1.98;1.35;;;;;;;29.71;28.76;100565.78;5382322;32;34937;-69
2022/06/02 13:25:27;;;;;;;1.58;1.15;;;;;;;29.62;29.08;100559.56;5379482;32;34248;-68
2022/06/02 13:28:55;;;;;;;3.00;1.30;;;;;;;28.98;29.32;100570.53;5361867;32;46538;-68
2022/06/02 13:32:35;;;;;;;3.75;1.30;;;;;;;28.82;30.07;100554.31;5388587;32;44502;-67
2022/06/02 13:35:50;;;;;;;1.85;1.40;;;;;;;29.31;29.63;100554.16;5376998;32;34423;-68
2022/06/02 13:39:01;;;;;;;2.62;1.77;;;;;;;29.47;29.06;100545.91;5353533;32;44988;-65
2022/06/02 13:42:33;;;;;;;2.53;1.47;;;;;;;28.74;30.28;100549.78;5386832;32;34180;-67
2022/06/02 13:46:14;;;;;;;2.03;1.40;;;;;;;28.37;30.66;100547.69;5364633;32;34802;-66
2022/06/02 13:49:38;;;;;;;3.90;1.65;;;;;;;29.30;29.37;100549.75;5363220;32;36728;-69
2022/06/02 13:53:06;;;;;;;2.12;1.30;;;;;;;29.50;28.68;100550.13;5389565;32;36703;-71
2022/06/02 14:00:11;;;;;;;2.83;1.60;;;;;;;29.16;28.46;100547.78;5370351;32;33957;-74
2022/06/02 14:03:38;;;;;;;6.35;1.48;;;;;;;29.29;28.04;100537.22;5386483;32;33027;-67
2022/06/02 14:06:50;;;;;;;1.60;1.40;;;;;;;27.99;30.23;100544.63;5378488;32;35312;-66
2022/06/02 14:10:08;;;;;;;3.72;1.45;;;;;;;29.12;27.58;100541.91;5370908;32;45285;-75
2022/06/02 14:13:37;;;;;;;1.62;1.30;;;;;;;28.73;27.63;100542.69;5384476;32;37498;-69
2022/06/02 14:17:03;;;;;;;2.08;1.60;;;;;;;28.66;27.55;100540.84;5374603;32;34068;-73
2022/06/02 14:20:19;;;;;;;3.08;1.10;;;;;;;28.79;27.12;100546.56;5366400;32;34164;-70
2022/06/02 14:24:08;;;;;;;3.55;1.62;;;;;;;28.51;29.28;100543.41;5376655;32;46020;-67
2022/06/02 14:27:19;;;;;;;3.03;1.50;;;;;;;28.57;28.89;100532.75;5342523;32;34141;-73
2022/06/02 14:30:31;;;;;;;8.23;1.90;;;;;;;28.26;28.79;100542.59;5400809;32;44769;-70
2022/06/02 14:33:37;;;;;;;2.78;1.70;;;;;;;28.07;29.73;100539.22;5383914;32;35818;-74
2022/06/02 14:37:06;;;;;;;3.47;1.45;;;;;;;29.40;27.96;100536.84;5377212;32;34035;-73
2022/06/02 14:40:49;;;;;;;3.87;1.87;;;;;;;28.87;27.54;100533.84;5376332;32;33952;-68
2022/06/02 14:44:00;;;;;;;6.35;3.80;;;;;;;28.48;27.78;100528.41;5346570;32;34184;-73
2022/06/02 14:47:10;;;;;;;1.25;1.15;;;;;;;28.76;27.24;100522.56;5382096;32;34227;-72
2022/06/02 14:50:20;;;;;;;1.80;1.30;;;;;;;28.11;27.56;100528.09;5376796;32;34128;-68
2022/06/02 14:53:29;;;;;;;3.95;1.67;;;;;;;28.99;25.78;100518.13;5371815;32;44493;-75
2022/06/02 14:56:58;;;;;;;2.58;1.42;;;;;;;28.64;27.50;100532.06;5384876;32;33884;-74
2022/06/02 15:00:36;;;;;;;5.85;2.15;;;;;;;28.53;27.84;100526.03;5370906;32;34037;-68
2022/06/02 15:03:45;;;;;;;4.05;1.50;;;;;;;28.55;27.84;100517.75;5341553;32;34115;-68
2022/06/02 15:07:19;;;;;;;4.07;1.65;;;;;;;28.38;28.00;100519.63;5384148;32;34161;-73
2022/06/02 15:10:28;;;;;;;2.97;1.60;;;;;;;27.74;30.11;100519.47;5373678;32;35446;-73
2022/06/02 15:13:49;;;;;;;3.65;1.60;;;;;;;27.98;30.35;100518.63;5384461;32;34258;-69
2022/06/02 15:17:28;;;;;;;5.60;1.92;;;;;;;28.32;29.81;100520.31;5368012;32;44177;-69
2022/06/02 15:21:10;;;;;;;5.57;1.70;;;;;;;28.79;28.96;100514.13;5381632;32;34136;-73
2022/06/02 15:24:49;;;;;;;2.40;1.60;;;;;;;28.52;28.54;100518.06;5377103;32;35756;-68
2022/06/02 15:27:54;;;;;;;4.90;2.00;;;;;;;28.14;29.48;100519.63;5383335;32;35799;-67
2022/06/02 15:31:19;;;;;;;3.65;1.58;;;;;;;28.90;28.69;100505.59;5386430;32;34103;-74
2022/06/02 15:35:00;;;;;;;3.30;1.55;;;;;;;28.30;29.39;100511.50;5392821;32;45272;-68
2022/06/02 15:38:14;;;;;;;3.72;1.90;;;;;;;27.46;30.09;100509.97;5385601;32;35421;-72
2022/06/02 15:41:56;;;;;;;3.80;2.30;;;;;;;29.22;27.82;100520.84;5361280;32;33992;-73
2022/06/02 15:44:58;;;;;;;2.08;1.50;;;;;;;28.38;28.10;100521.50;5396376;32;34049;-69
2022/06/02 15:48:32;;;;;;;1.85;1.58;;;;;;;28.46;28.11;100526.88;5386368;32;33994;-73